KPSC

Tri-Cities Airport

Pasco, Washington, USA
KPSC 170419Z 1704/1724 33004KT P6SM OVC060 FM170500 32005KT 6SM -SN BR OVC030 TEMPO 1705/1709 -FZRA FM170900 30005KT 3SM -FZRA BR OVC015 FM171600 VRB04KT P6SM VCSH OVC025 FM172100 35006KT P6SM SCT030 BKN080
Issued Valid From Valid To
Jan-17 @ 04:19 UTC
(an hour ago)
Jan-17 @ 04:00 UTC
(2 hours ago)
Jan-18 @ 00:00 UTC
(in 18 hours)
Expired Click to View Jan-17 @ 04:00 to Jan-17 @ 05:00
KPSC 170419Z 1704/1724 33004KT P6SM OVC060
Wind Visibility Clouds
330° at 4 knots Greater than 6 miles
  • Overcast at 6,000' AGL
Temporary Jan-17 @ 05:00 to Jan-17 @ 09:00
TEMPO 1705/1709 -FZRA
Conditions
  • Light Freezing
  • Light Rain
From Jan-17 @ 05:00 to Jan-17 @ 09:00
FM170500 32005KT 6SM -SN BR OVC030
Wind Visibility Clouds Conditions
320° at 5 knots 6 miles
  • Overcast at 3,000' AGL
  • Light Snow
  • Mist
From Jan-17 @ 09:00 to Jan-17 @ 16:00
FM170900 30005KT 3SM -FZRA BR OVC015
Wind Visibility Clouds Conditions
300° at 5 knots 3 miles
  • Overcast at 1,500' AGL
  • Light Freezing
  • Light Rain
  • Mist
From Jan-17 @ 16:00 to Jan-17 @ 21:00
FM171600 VRB04KT P6SM VCSH OVC025
Wind Visibility Clouds
Variable at 4 knots Greater than 6 miles
  • Overcast at 2,500' AGL
From Jan-17 @ 21:00 to Jan-18 @ 00:00
FM172100 35006KT P6SM SCT030 BKN080
Wind Visibility Clouds
350° at 6 knots Greater than 6 miles
  • Scattered at 3,000' AGL
  • Broken at 8,000' AGL
KPSC 170419Z 1704/1724 33004KT P6SM OVC060 FM170500 32005KT 6SM -SN BR OVC030 TEMPO 1705/1709 -FZRA FM170900 30005KT 3SM -FZRA BR OVC015 FM171600 VRB04KT P6SM VCSH OVC025 FM172100 35006KT P6SM SCT030 BKN080
Issued Jan-17 @ 04:19 UTC
(an hour ago)
Valid From Jan-17 @ 04:00 UTC
(2 hours ago)
Valid To Jan-18 @ 00:00 UTC
(in 18 hours)
Jan-17 @ 04:00 - Jan-17 @ 05:00
Wind Visibility
330° at 4 knots Greater than 6 miles
Clouds
  • Overcast at 6,000' AGL
Temporary Jan-17 @ 05:00 - Jan-17 @ 09:00
Conditions
  • Light Freezing
  • Light Rain
From Jan-17 @ 05:00 - Jan-17 @ 09:00
Wind Visibility
320° at 5 knots 6 miles
Clouds
  • Overcast at 3,000' AGL
Conditions
  • Light Snow
  • Mist
From Jan-17 @ 09:00 - Jan-17 @ 16:00
Wind Visibility
300° at 5 knots 3 miles
Clouds
  • Overcast at 1,500' AGL
Conditions
  • Light Freezing
  • Light Rain
  • Mist
From Jan-17 @ 16:00 - Jan-17 @ 21:00
Wind Visibility
Variable at 4 knots Greater than 6 miles
Clouds
  • Overcast at 2,500' AGL
From Jan-17 @ 21:00 - Jan-18 @ 00:00
Wind Visibility
350° at 6 knots Greater than 6 miles
Clouds
  • Scattered at 3,000' AGL
  • Broken at 8,000' AGL